Time;durP1;ratioP1;P1;durP2;ratioP2;P2;SDS_P1;SDS_P2;PMS_P1;PMS_P2;Temp;Humidity;BMP_temperature;BMP_pressure;BME280_temperature;BME280_humidity;BME280_pressure;Samples;Min_cycle;Max_cycle;Signal;HPM_P1;HPM_P2
2023/07/10 00:01:39;;;;;;;5.07;3.27;;;;;;;;;;5033878;28;20411;-86
2023/07/10 00:04:13;;;;;;;5.47;3.23;;;;;;;;;;5033942;28;20524;-85
2023/07/10 00:06:39;;;;;;;10.40;4.50;;;;;;;;;;5032855;28;20516;-85
2023/07/10 00:09:05;;;;;;;4.87;2.97;;;;;;;;;;5032898;28;20510;-86
2023/07/10 00:11:31;;;;;;;6.67;4.13;;;;;;;;;;5033974;28;20711;-85
2023/07/10 00:14:00;;;;;;;4.30;2.43;;;;;;;;;;5034205;28;20175;-85
2023/07/10 00:16:27;;;;;;;4.40;3.30;;;;;;;;;;5032366;28;20440;-86
2023/07/10 00:18:52;;;;;;;5.03;3.73;;;;;;;;;;5034004;28;20948;-85
2023/07/10 00:21:19;;;;;;;4.80;3.57;;;;;;;;;;5033871;28;20470;-84
2023/07/10 00:23:45;;;;;;;5.10;3.23;;;;;;;;;;5035899;28;20532;-85
2023/07/10 00:26:12;;;;;;;4.43;3.63;;;;;;;;;;5053839;28;20435;-85
2023/07/10 00:28:38;;;;;;;8.17;3.70;;;;;;;;;;5053482;28;20416;-85
2023/07/10 00:31:04;;;;;;;4.40;3.23;;;;;;;;;;5053410;28;20420;-85
2023/07/10 00:33:30;;;;;;;4.13;2.40;;;;;;;;;;5053291;28;20421;-86
2023/07/10 00:35:56;;;;;;;5.23;3.30;;;;;;;;;;5052261;28;20783;-86
2023/07/10 00:38:26;;;;;;;4.10;3.10;;;;;;;;;;5052163;28;20193;-86
2023/07/10 00:40:52;;;;;;;5.40;3.90;;;;;;;;;;5042622;28;20186;-86
2023/07/10 00:43:37;;;;;;;5.83;3.10;;;;;;;;;;5048521;28;20476;-85
2023/07/10 00:46:10;;;;;;;5.13;2.67;;;;;;;;;;5053417;28;20417;-85
2023/07/10 00:48:40;;;;;;;4.50;3.30;;;;;;;;;;5051723;28;20409;-84
2023/07/10 00:51:17;;;;;;;3.90;2.40;;;;;;;;;;5053513;28;20418;-86
2023/07/10 00:53:45;;;;;;;6.00;3.30;;;;;;;;;;5053332;28;20470;-86
2023/07/10 00:56:18;;;;;;;4.13;3.70;;;;;;;;;;5053230;28;20429;-86
2023/07/10 00:58:45;;;;;;;5.40;3.50;;;;;;;;;;5053206;28;20416;-86
2023/07/10 01:01:23;;;;;;;6.53;2.73;;;;;;;;;;5053173;28;20901;-86
2023/07/10 01:03:50;;;;;;;5.83;3.80;;;;;;;;;;5052994;28;20477;-86
2023/07/10 01:06:25;;;;;;;3.27;2.83;;;;;;;;;;5053064;28;20419;-86
2023/07/10 01:09:04;;;;;;;3.80;3.40;;;;;;;;;;5053217;28;20444;-86
2023/07/10 01:11:31;;;;;;;3.57;3.00;;;;;;;;;;5052787;28;20511;-86
2023/07/10 01:13:58;;;;;;;4.40;3.87;;;;;;;;;;5053019;28;20448;-86
2023/07/10 01:16:25;;;;;;;4.43;3.40;;;;;;;;;;5050716;28;20468;-86
2023/07/10 01:18:54;;;;;;;4.93;3.43;;;;;;;;;;5052957;28;20417;-87
2023/07/10 01:21:33;;;;;;;4.13;3.30;;;;;;;;;;5052759;28;20410;-86
2023/07/10 01:24:01;;;;;;;3.50;3.00;;;;;;;;;;5052775;28;20822;-87
2023/07/10 01:26:27;;;;;;;4.80;3.97;;;;;;;;;;5051577;28;20813;-86
2023/07/10 01:28:54;;;;;;;4.63;3.70;;;;;;;;;;5052819;28;20892;-87
2023/07/10 01:31:20;;;;;;;4.07;3.23;;;;;;;;;;5052357;28;20775;-88
2023/07/10 01:34:01;;;;;;;3.70;3.30;;;;;;;;;;5051474;28;20474;-87
2023/07/10 01:36:28;;;;;;;4.20;3.60;;;;;;;;;;5051466;28;20906;-86
2023/07/10 01:38:56;;;;;;;4.37;3.60;;;;;;;;;;5052662;28;20410;-85
2023/07/10 01:41:39;;;;;;;7.37;4.00;;;;;;;;;;5050685;28;20444;-86
2023/07/10 01:44:18;;;;;;;4.20;3.60;;;;;;;;;;5033021;28;20473;-85
2023/07/10 01:46:44;;;;;;;6.30;3.63;;;;;;;;;;5032407;28;20405;-84
2023/07/10 01:49:10;;;;;;;4.23;3.77;;;;;;;;;;5032882;28;20500;-83
2023/07/10 01:51:36;;;;;;;4.90;4.07;;;;;;;;;;5032750;28;20699;-83
2023/07/10 01:54:05;;;;;;;5.07;3.30;;;;;;;;;;5032774;28;20437;-83
2023/07/10 01:56:32;;;;;;;4.50;4.10;;;;;;;;;;5032788;28;20428;-83
2023/07/10 01:58:57;;;;;;;5.90;4.30;;;;;;;;;;5032734;28;20513;-83
2023/07/10 02:01:23;;;;;;;7.17;3.90;;;;;;;;;;5032387;28;20920;-83
2023/07/10 02:03:49;;;;;;;6.67;4.63;;;;;;;;;;5032605;28;21134;-82
2023/07/10 02:06:16;;;;;;;6.13;4.23;;;;;;;;;;5032493;28;20421;-83
2023/07/10 02:08:42;;;;;;;4.80;3.70;;;;;;;;;;5032678;28;20210;-83
2023/07/10 02:11:08;;;;;;;5.33;3.87;;;;;;;;;;5031194;28;20473;-83
2023/07/10 02:13:34;;;;;;;5.00;4.10;;;;;;;;;;5031402;28;20427;-83
2023/07/10 02:16:02;;;;;;;4.47;3.60;;;;;;;;;;5032660;28;20637;-82
2023/07/10 02:18:28;;;;;;;4.43;3.90;;;;;;;;;;5032266;28;20478;-82
2023/07/10 02:20:54;;;;;;;4.50;3.70;;;;;;;;;;5032635;28;20406;-83
2023/07/10 02:23:20;;;;;;;5.63;4.17;;;;;;;;;;5032418;28;20471;-83
2023/07/10 02:25:46;;;;;;;5.90;3.80;;;;;;;;;;5032499;28;20219;-83
2023/07/10 02:28:11;;;;;;;6.47;4.17;;;;;;;;;;5036037;28;20450;-83
2023/07/10 02:30:38;;;;;;;4.90;4.40;;;;;;;;;;5036282;28;20407;-83
2023/07/10 02:33:04;;;;;;;6.73;5.10;;;;;;;;;;5035758;28;20228;-83
2023/07/10 02:35:30;;;;;;;5.27;4.77;;;;;;;;;;5036112;28;20458;-83
2023/07/10 02:37:56;;;;;;;4.63;4.17;;;;;;;;;;5036051;28;20821;-83
2023/07/10 02:40:22;;;;;;;5.70;4.57;;;;;;;;;;5036002;28;20509;-82
2023/07/10 02:42:48;;;;;;;5.00;4.50;;;;;;;;;;5035867;28;20296;-83
2023/07/10 02:45:14;;;;;;;6.63;4.50;;;;;;;;;;5036020;28;20437;-83
2023/07/10 02:47:40;;;;;;;4.10;3.70;;;;;;;;;;5035558;28;20180;-83
2023/07/10 02:50:07;;;;;;;6.77;4.50;;;;;;;;;;5035790;28;20907;-83
2023/07/10 02:52:33;;;;;;;4.50;4.10;;;;;;;;;;5034525;28;20434;-83
2023/07/10 02:54:59;;;;;;;6.57;4.77;;;;;;;;;;5035771;28;20417;-82
2023/07/10 02:57:25;;;;;;;5.30;4.70;;;;;;;;;;5035791;28;20620;-83
2023/07/10 02:59:51;;;;;;;6.63;5.93;;;;;;;;;;5035723;28;20175;-83
2023/07/10 03:02:19;;;;;;;7.03;5.40;;;;;;;;;;5035194;28;20172;-83
2023/07/10 03:04:46;;;;;;;6.77;5.80;;;;;;;;;;5035571;28;20257;-82
2023/07/10 03:07:11;;;;;;;7.20;6.50;;;;;;;;;;5034277;28;20423;-82
2023/07/10 03:09:40;;;;;;;8.03;6.77;;;;;;;;;;5035539;28;20413;-83
2023/07/10 03:12:07;;;;;;;9.13;7.80;;;;;;;;;;5035078;28;20226;-84
2023/07/10 03:14:33;;;;;;;12.53;7.13;;;;;;;;;;5034117;28;20481;-82
2023/07/10 03:17:03;;;;;;;8.40;7.70;;;;;;;;;;5033940;28;20992;-83
2023/07/10 03:19:30;;;;;;;11.20;8.20;;;;;;;;;;5033978;28;20845;-83
2023/07/10 03:21:56;;;;;;;8.77;7.07;;;;;;;;;;5033969;28;20413;-83
2023/07/10 03:24:22;;;;;;;7.80;7.00;;;;;;;;;;5035076;28;20468;-82
2023/07/10 03:26:48;;;;;;;8.83;7.83;;;;;;;;;;5035140;28;20172;-83
2023/07/10 03:29:15;;;;;;;7.10;6.50;;;;;;;;;;5035152;28;20178;-82
2023/07/10 03:31:41;;;;;;;9.23;6.73;;;;;;;;;;5034730;28;20414;-84
2023/07/10 03:34:07;;;;;;;7.90;7.10;;;;;;;;;;5035011;28;20414;-82
2023/07/10 03:36:43;;;;;;;9.57;7.77;;;;;;;;;;5033784;28;20422;-82
2023/07/10 03:39:09;;;;;;;8.10;7.10;;;;;;;;;;5034414;28;20445;-81
2023/07/10 03:41:35;;;;;;;7.00;6.30;;;;;;;;;;5034897;28;20777;-82
2023/07/10 03:44:01;;;;;;;7.53;6.83;;;;;;;;;;5034646;28;20485;-82
2023/07/10 03:46:27;;;;;;;9.57;6.30;;;;;;;;;;5033167;28;20791;-82
2023/07/10 03:48:53;;;;;;;8.90;7.30;;;;;;;;;;5033811;28;20429;-82
2023/07/10 03:51:19;;;;;;;9.07;6.23;;;;;;;;;;5034627;28;20178;-81
2023/07/10 03:53:48;;;;;;;7.20;6.50;;;;;;;;;;5034647;28;20416;-82
2023/07/10 03:56:14;;;;;;;7.67;6.40;;;;;;;;;;5034569;28;20410;-82
2023/07/10 03:58:42;;;;;;;8.60;6.30;;;;;;;;;;5034539;28;20420;-82
2023/07/10 04:01:08;;;;;;;6.50;5.67;;;;;;;;;;5032900;28;20617;-82
2023/07/10 04:03:35;;;;;;;8.50;5.57;;;;;;;;;;5034464;28;20471;-82
2023/07/10 04:06:02;;;;;;;7.23;5.30;;;;;;;;;;5034394;28;20413;-82
2023/07/10 04:08:35;;;;;;;6.83;5.33;;;;;;;;;;5032964;28;20926;-82
2023/07/10 04:11:02;;;;;;;7.03;6.03;;;;;;;;;;5032805;28;20476;-82
2023/07/10 04:13:32;;;;;;;6.93;6.33;;;;;;;;;;5034264;28;20422;-83
2023/07/10 04:15:58;;;;;;;6.40;5.33;;;;;;;;;;5032549;28;20474;-82
2023/07/10 04:18:26;;;;;;;7.60;5.87;;;;;;;;;;5034336;28;20902;-83
2023/07/10 04:20:52;;;;;;;6.60;5.90;;;;;;;;;;5034110;28;20420;-81
2023/07/10 04:23:18;;;;;;;9.20;6.33;;;;;;;;;;5034002;28;20481;-81
2023/07/10 04:25:45;;;;;;;11.20;6.17;;;;;;;;;;5033904;28;20229;-82
2023/07/10 04:28:10;;;;;;;6.63;5.93;;;;;;;;;;5033856;28;20418;-82
2023/07/10 04:30:37;;;;;;;10.10;7.63;;;;;;;;;;5033946;28;20414;-83
2023/07/10 04:33:08;;;;;;;6.40;5.80;;;;;;;;;;5033360;28;20175;-83
2023/07/10 04:35:34;;;;;;;6.90;6.27;;;;;;;;;;5033819;28;20914;-83
2023/07/10 04:38:00;;;;;;;11.50;8.17;;;;;;;;;;5032489;28;20562;-82
2023/07/10 04:40:26;;;;;;;8.23;5.87;;;;;;;;;;5033616;28;20420;-82
2023/07/10 04:42:53;;;;;;;8.07;6.50;;;;;;;;;;5035622;28;20216;-83
2023/07/10 04:45:19;;;;;;;11.30;7.30;;;;;;;;;;5044589;28;20461;-83
2023/07/10 04:47:45;;;;;;;8.03;6.37;;;;;;;;;;5045149;28;20432;-83
2023/07/10 04:50:11;;;;;;;7.00;6.30;;;;;;;;;;5038910;28;20425;-83
2023/07/10 04:52:37;;;;;;;8.40;7.57;;;;;;;;;;5033602;28;20418;-84
2023/07/10 04:55:03;;;;;;;12.03;7.60;;;;;;;;;;5035739;28;20176;-83
2023/07/10 04:57:29;;;;;;;9.23;7.80;;;;;;;;;;5050937;28;20186;-84
2023/07/10 04:59:55;;;;;;;8.57;7.73;;;;;;;;;;5051787;28;20902;-84
2023/07/10 05:02:21;;;;;;;9.00;7.37;;;;;;;;;;5051652;28;20777;-83
2023/07/10 05:04:47;;;;;;;7.07;6.20;;;;;;;;;;5053317;28;20535;-84
2023/07/10 05:07:19;;;;;;;9.13;7.27;;;;;;;;;;5051224;28;20199;-84
2023/07/10 05:09:44;;;;;;;8.60;7.70;;;;;;;;;;5051657;28;20187;-83
2023/07/10 05:12:10;;;;;;;7.20;6.60;;;;;;;;;;5053036;28;20982;-83
2023/07/10 05:14:36;;;;;;;9.53;7.80;;;;;;;;;;5053171;28;20179;-83
2023/07/10 05:17:02;;;;;;;8.00;7.30;;;;;;;;;;5052824;28;20174;-83
2023/07/10 05:19:32;;;;;;;8.57;7.67;;;;;;;;;;5053158;28;20182;-83
2023/07/10 05:21:58;;;;;;;8.57;7.60;;;;;;;;;;5053099;28;20461;-83
2023/07/10 05:24:24;;;;;;;8.00;7.20;;;;;;;;;;5052898;28;20992;-82
2023/07/10 05:26:50;;;;;;;7.97;7.27;;;;;;;;;;5051776;28;20183;-83
2023/07/10 05:29:16;;;;;;;7.40;6.57;;;;;;;;;;5052965;28;20520;-83
2023/07/10 05:31:42;;;;;;;8.90;7.07;;;;;;;;;;5052599;28;20175;-83
2023/07/10 05:34:08;;;;;;;9.13;8.27;;;;;;;;;;5052952;28;20180;-83
2023/07/10 05:36:34;;;;;;;8.97;8.00;;;;;;;;;;5051592;28;20430;-83
2023/07/10 05:38:59;;;;;;;9.50;8.60;;;;;;;;;;5052837;28;20536;-83
2023/07/10 05:41:25;;;;;;;8.10;7.30;;;;;;;;;;5052848;28;20204;-82
2023/07/10 05:43:51;;;;;;;11.70;10.40;;;;;;;;;;5052709;28;20315;-82
2023/07/10 05:46:18;;;;;;;8.63;7.33;;;;;;;;;;5052477;28;20407;-82
2023/07/10 05:48:44;;;;;;;10.13;9.13;;;;;;;;;;5052718;28;20171;-82
2023/07/10 05:51:10;;;;;;;9.20;6.87;;;;;;;;;;5052651;28;20415;-83
2023/07/10 05:53:36;;;;;;;8.00;6.83;;;;;;;;;;5052621;28;20448;-84
2023/07/10 05:56:03;;;;;;;8.67;7.77;;;;;;;;;;5052698;28;20490;-82
2023/07/10 05:58:29;;;;;;;10.33;8.73;;;;;;;;;;5052658;28;20414;-83
2023/07/10 06:00:57;;;;;;;8.60;7.70;;;;;;;;;;5052494;28;20911;-84
2023/07/10 06:03:23;;;;;;;8.50;7.60;;;;;;;;;;5055376;28;20812;-86
2023/07/10 06:05:55;;;;;;;8.20;7.00;;;;;;;;;;5056637;28;20437;-84
2023/07/10 06:08:21;;;;;;;8.57;7.70;;;;;;;;;;5056589;28;20185;-90
2023/07/10 06:10:47;;;;;;;9.10;8.17;;;;;;;;;;5056384;28;20526;-88
2023/07/10 06:13:13;;;;;;;8.03;7.10;;;;;;;;;;5056533;28;20581;-84
2023/07/10 06:15:46;;;;;;;9.47;8.47;;;;;;;;;;5056156;28;20404;-84
2023/07/10 06:18:12;;;;;;;8.33;7.30;;;;;;;;;;5056153;28;20172;-86
2023/07/10 06:20:37;;;;;;;13.33;7.63;;;;;;;;;;5056642;28;20403;-90
2023/07/10 06:23:03;;;;;;;7.80;7.00;;;;;;;;;;5056435;28;20665;-88
2023/07/10 06:25:30;;;;;;;10.90;8.60;;;;;;;;;;5056490;28;20180;-87
2023/07/10 06:27:56;;;;;;;9.00;8.10;;;;;;;;;;5056503;28;20180;-91
2023/07/10 06:30:22;;;;;;;10.10;7.93;;;;;;;;;;5054639;28;20428;-87
2023/07/10 06:32:48;;;;;;;8.70;7.90;;;;;;;;;;5056374;28;20177;-90
2023/07/10 06:35:15;;;;;;;9.80;7.23;;;;;;;;;;5056297;28;20431;-90
2023/07/10 06:37:41;;;;;;;8.70;7.80;;;;;;;;;;5054831;28;20266;-89
2023/07/10 06:40:16;;;;;;;10.70;9.63;;;;;;;;;;5056118;28;20716;-89
2023/07/10 06:42:42;;;;;;;9.07;8.20;;;;;;;;;;5055804;28;20461;-86
2023/07/10 06:45:10;;;;;;;9.20;8.30;;;;;;;;;;5055896;28;20425;-84
2023/07/10 06:47:40;;;;;;;9.17;8.37;;;;;;;;;;5055322;28;20403;-85
2023/07/10 06:50:09;;;;;;;9.77;7.20;;;;;;;;;;5055802;28;20892;-85
2023/07/10 06:52:37;;;;;;;8.90;8.10;;;;;;;;;;5055021;28;20407;-85
2023/07/10 06:55:03;;;;;;;10.00;9.00;;;;;;;;;;5055622;28;20485;-85
2023/07/10 06:57:29;;;;;;;9.07;8.27;;;;;;;;;;5053581;28;20902;-85
2023/07/10 06:59:55;;;;;;;8.40;7.70;;;;;;;;;;5054279;28;20420;-83
2023/07/10 07:02:21;;;;;;;9.80;8.90;;;;;;;;;;5055069;28;20208;-83
2023/07/10 07:04:47;;;;;;;13.03;9.20;;;;;;;;;;5055446;28;20180;-83
2023/07/10 07:07:13;;;;;;;8.77;7.97;;;;;;;;;;5054927;28;20223;-84
2023/07/10 07:09:39;;;;;;;8.93;7.73;;;;;;;;;;5051019;28;20308;-84
2023/07/10 07:12:05;;;;;;;10.00;9.00;;;;;;;;;;5054195;28;20256;-84
2023/07/10 07:14:31;;;;;;;10.00;8.97;;;;;;;;;;5052001;28;20919;-85
2023/07/10 07:16:57;;;;;;;10.60;9.63;;;;;;;;;;5053750;28;20406;-85
2023/07/10 07:19:23;;;;;;;10.80;9.70;;;;;;;;;;5054232;28;20720;-84
2023/07/10 07:21:49;;;;;;;11.30;10.30;;;;;;;;;;5054129;28;20172;-85
2023/07/10 07:24:15;;;;;;;9.70;8.90;;;;;;;;;;5052840;28;20475;-85
2023/07/10 07:26:41;;;;;;;8.77;7.97;;;;;;;;;;5053953;28;20168;-83
2023/07/10 07:29:07;;;;;;;10.83;7.17;;;;;;;;;;5054079;28;20851;-84
2023/07/10 07:31:33;;;;;;;7.80;7.00;;;;;;;;;;5053651;28;20183;-85
2023/07/10 07:33:59;;;;;;;9.70;7.60;;;;;;;;;;5052800;28;20923;-85
2023/07/10 07:36:25;;;;;;;9.40;8.57;;;;;;;;;;5053879;28;20501;-84
2023/07/10 07:38:50;;;;;;;9.43;8.43;;;;;;;;;;5053871;28;20861;-84
2023/07/10 07:41:16;;;;;;;12.00;9.97;;;;;;;;;;5053940;28;20172;-85
2023/07/10 07:43:42;;;;;;;10.03;9.10;;;;;;;;;;5053853;28;20212;-86
2023/07/10 07:46:08;;;;;;;12.27;11.10;;;;;;;;;;5053396;28;20534;-89
2023/07/10 07:48:34;;;;;;;12.37;11.17;;;;;;;;;;5053724;28;20427;-84
2023/07/10 07:51:01;;;;;;;11.23;10.13;;;;;;;;;;5053555;28;20414;-85
2023/07/10 07:53:28;;;;;;;11.97;9.27;;;;;;;;;;5053570;28;20430;-84
2023/07/10 07:55:54;;;;;;;10.93;9.83;;;;;;;;;;5053444;28;20437;-81
2023/07/10 07:58:20;;;;;;;11.03;9.93;;;;;;;;;;5053392;28;20423;-82
2023/07/10 08:00:46;;;;;;;13.10;9.93;;;;;;;;;;5053086;28;20420;-81
2023/07/10 08:03:13;;;;;;;9.23;8.33;;;;;;;;;;5053348;28;20459;-84
2023/07/10 08:05:39;;;;;;;9.03;8.13;;;;;;;;;;5053101;28;20837;-81
2023/07/10 08:08:06;;;;;;;8.57;7.20;;;;;;;;;;5053304;28;20457;-84
2023/07/10 08:10:35;;;;;;;11.07;8.93;;;;;;;;;;5053076;28;20254;-84
2023/07/10 08:13:01;;;;;;;8.87;7.80;;;;;;;;;;5053165;28;20447;-83
2023/07/10 08:15:27;;;;;;;11.17;10.17;;;;;;;;;;5051313;28;20454;-80
2023/07/10 08:17:53;;;;;;;10.07;8.93;;;;;;;;;;5053101;28;20500;-80
2023/07/10 08:20:19;;;;;;;9.53;8.10;;;;;;;;;;5051913;28;20216;-84
2023/07/10 08:22:45;;;;;;;11.13;7.90;;;;;;;;;;5051739;28;20671;-84
2023/07/10 08:25:11;;;;;;;9.60;8.60;;;;;;;;;;5052737;28;20504;-82
2023/07/10 08:27:37;;;;;;;7.93;7.23;;;;;;;;;;5053576;28;20167;-83
2023/07/10 08:30:03;;;;;;;8.50;7.37;;;;;;;;;;5052113;28;20719;-83
2023/07/10 08:32:29;;;;;;;9.33;6.30;;;;;;;;;;5053925;28;20538;-83
2023/07/10 08:34:55;;;;;;;8.83;7.93;;;;;;;;;;5053499;28;20434;-83
2023/07/10 08:37:20;;;;;;;8.80;7.90;;;;;;;;;;5053355;28;20236;-83
2023/07/10 08:39:47;;;;;;;7.87;6.37;;;;;;;;;;5050187;28;20670;-82
2023/07/10 08:42:21;;;;;;;7.00;5.57;;;;;;;;;;5053050;28;20180;-82
2023/07/10 08:44:48;;;;;;;7.47;5.37;;;;;;;;;;5053394;28;20484;-84
2023/07/10 08:47:24;;;;;;;6.57;4.50;;;;;;;;;;5053395;28;20443;-84
2023/07/10 08:50:04;;;;;;;4.30;3.80;;;;;;;;;;5053560;28;20810;-81
2023/07/10 08:52:39;;;;;;;5.17;4.00;;;;;;;;;;5053636;28;20461;-81
2023/07/10 08:55:10;;;;;;;6.40;3.90;;;;;;;;;;5052152;28;20419;-82
2023/07/10 08:57:38;;;;;;;7.00;4.83;;;;;;;;;;5053533;28;20402;-83
2023/07/10 09:00:07;;;;;;;8.53;5.40;;;;;;;;;;5053053;28;20415;-82
2023/07/10 09:02:38;;;;;;;5.40;4.83;;;;;;;;;;5053300;28;20464;-82
2023/07/10 09:05:05;;;;;;;6.10;4.80;;;;;;;;;;5053351;28;20422;-81
2023/07/10 09:07:35;;;;;;;6.30;4.93;;;;;;;;;;5052076;28;20451;-83
2023/07/10 09:10:02;;;;;;;7.87;5.57;;;;;;;;;;5053265;28;20946;-81
2023/07/10 09:12:39;;;;;;;7.63;5.73;;;;;;;;;;5053169;28;20774;-82
2023/07/10 09:15:12;;;;;;;5.93;4.10;;;;;;;;;;5052897;28;20407;-82
2023/07/10 09:17:43;;;;;;;4.80;4.33;;;;;;;;;;5053206;28;20399;-82
2023/07/10 09:20:10;;;;;;;4.53;3.57;;;;;;;;;;5053149;28;20423;-82
2023/07/10 09:22:37;;;;;;;4.20;3.30;;;;;;;;;;5052932;28;20404;-83
2023/07/10 09:25:09;;;;;;;4.03;3.10;;;;;;;;;;5053142;28;20765;-82
2023/07/10 09:27:35;;;;;;;7.83;2.80;;;;;;;;;;5053043;28;20466;-83
2023/07/10 09:30:01;;;;;;;5.43;3.30;;;;;;;;;;5052509;28;20429;-83
2023/07/10 09:32:28;;;;;;;3.93;3.00;;;;;;;;;;5052932;28;20408;-82
2023/07/10 09:34:58;;;;;;;2.90;2.33;;;;;;;;;;5052681;28;20470;-83
2023/07/10 09:37:30;;;;;;;4.80;2.90;;;;;;;;;;5052442;28;20416;-82
2023/07/10 09:39:56;;;;;;;3.30;2.87;;;;;;;;;;5052993;28;20420;-82
2023/07/10 09:42:30;;;;;;;5.40;3.27;;;;;;;;;;5052841;28;20416;-81
2023/07/10 09:44:56;;;;;;;3.63;2.77;;;;;;;;;;5051366;28;20268;-84
2023/07/10 09:47:23;;;;;;;5.37;2.40;;;;;;;;;;5052933;28;20491;-82
2023/07/10 09:49:54;;;;;;;3.90;2.27;;;;;;;;;;5052827;28;20908;-84
2023/07/10 09:52:24;;;;;;;4.70;2.23;;;;;;;;;;5052741;28;20816;-85
2023/07/10 09:54:58;;;;;;;5.70;2.33;;;;;;;;;;5052658;28;20412;-84
2023/07/10 09:57:24;;;;;;;4.73;2.77;;;;;;;;;;5052731;28;20401;-85
2023/07/10 10:00:00;;;;;;;4.47;1.33;;;;;;;;;;5052446;28;20779;-81
2023/07/10 10:02:26;;;;;;;4.43;2.43;;;;;;;;;;5052717;28;20173;-80
2023/07/10 10:05:00;;;;;;;4.27;2.47;;;;;;;;;;5052594;28;20990;-82
2023/07/10 10:07:26;;;;;;;1.83;1.60;;;;;;;;;;5052823;28;20455;-85
2023/07/10 10:10:18;;;;;;;3.27;2.07;;;;;;;;;;5052611;28;20440;-85
2023/07/10 10:12:45;;;;;;;3.87;1.80;;;;;;;;;;5052437;28;20174;-82
2023/07/10 10:15:17;;;;;;;4.20;2.50;;;;;;;;;;5052102;28;20904;-84
2023/07/10 10:17:44;;;;;;;4.07;2.53;;;;;;;;;;5052362;28;20415;-82
2023/07/10 10:20:21;;;;;;;4.80;2.93;;;;;;;;;;5052410;28;20409;-84
2023/07/10 10:22:47;;;;;;;5.60;2.90;;;;;;;;;;5052341;28;20529;-80
2023/07/10 10:25:15;;;;;;;3.50;1.50;;;;;;;;;;5052141;28;20412;-81
2023/07/10 10:27:44;;;;;;;3.37;1.90;;;;;;;;;;5051732;28;20499;-83
2023/07/10 10:30:10;;;;;;;3.53;1.47;;;;;;;;;;5051299;28;20546;-84
2023/07/10 10:32:36;;;;;;;2.33;1.50;;;;;;;;;;5051710;28;20685;-87
2023/07/10 10:35:08;;;;;;;4.27;1.87;;;;;;;;;;5052093;28;20419;-83
2023/07/10 10:37:39;;;;;;;3.17;1.90;;;;;;;;;;5052098;28;20177;-84
2023/07/10 10:40:30;;;;;;;2.90;1.67;;;;;;;;;;5052068;28;20474;-84
2023/07/10 10:43:03;;;;;;;3.73;2.07;;;;;;;;;;5052162;28;20466;-84
2023/07/10 10:45:29;;;;;;;3.67;1.57;;;;;;;;;;5050490;28;20797;-84
2023/07/10 10:47:55;;;;;;;2.80;1.40;;;;;;;;;;5052103;28;20412;-84
2023/07/10 10:50:30;;;;;;;2.90;1.83;;;;;;;;;;5055585;28;20546;-83
2023/07/10 10:53:13;;;;;;;3.50;1.40;;;;;;;;;;5055569;28;20176;-83
2023/07/10 10:55:57;;;;;;;1.77;1.20;;;;;;;;;;5054925;28;20423;-83
2023/07/10 10:58:43;;;;;;;3.07;1.33;;;;;;;;;;5055457;28;20433;-83
2023/07/10 11:01:25;;;;;;;2.40;1.30;;;;;;;;;;5055155;28;20420;-83
2023/07/10 11:03:54;;;;;;;4.50;1.40;;;;;;;;;;5055310;28;20507;-84
2023/07/10 11:06:20;;;;;;;3.77;1.57;;;;;;;;;;5055429;28;20455;-82
2023/07/10 11:08:49;;;;;;;2.67;1.40;;;;;;;;;;5055321;28;20447;-86
2023/07/10 11:11:24;;;;;;;1.40;1.10;;;;;;;;;;5055151;28;20283;-83
2023/07/10 11:13:50;;;;;;;1.73;0.73;;;;;;;;;;5055301;28;20419;-86
2023/07/10 11:16:19;;;;;;;1.30;0.77;;;;;;;;;;5054865;28;20416;-86
2023/07/10 11:18:45;;;;;;;1.83;1.20;;;;;;;;;;5055220;28;20801;-83
2023/07/10 11:21:11;;;;;;;1.97;1.00;;;;;;;;;;5055028;28;20917;-85
2023/07/10 11:23:37;;;;;;;2.40;1.30;;;;;;;;;;5054944;28;20463;-84
2023/07/10 11:26:08;;;;;;;2.43;1.10;;;;;;;;;;5054937;28;20503;-83
2023/07/10 11:28:34;;;;;;;1.80;1.20;;;;;;;;;;5055011;28;20165;-83
2023/07/10 11:31:19;;;;;;;2.30;1.70;;;;;;;;;;5054499;28;20408;-84
2023/07/10 11:33:50;;;;;;;2.83;2.13;;;;;;;;;;5054864;28;20422;-84
2023/07/10 11:36:18;;;;;;;2.63;1.33;;;;;;;;;;5054741;28;20401;-86
2023/07/10 11:38:57;;;;;;;2.40;1.30;;;;;;;;;;5054731;28;20420;-86
2023/07/10 11:41:25;;;;;;;5.20;1.63;;;;;;;;;;5054653;28;20400;-84
2023/07/10 11:43:53;;;;;;;2.47;1.57;;;;;;;;;;5054598;28;20467;-85
2023/07/10 11:46:26;;;;;;;3.50;1.80;;;;;;;;;;5054317;28;20432;-86
2023/07/10 11:49:19;;;;;;;3.50;1.70;;;;;;;;;;5054496;28;20416;-85
2023/07/10 11:52:05;;;;;;;3.30;1.50;;;;;;;;;;5052001;28;20420;-83
2023/07/10 11:54:33;;;;;;;4.00;2.00;;;;;;;;;;5054510;28;20417;-87
2023/07/10 11:57:02;;;;;;;2.37;1.20;;;;;;;;;;5054005;28;20416;-89
2023/07/10 11:59:28;;;;;;;2.90;1.60;;;;;;;;;;5053715;28;20408;-86
2023/07/10 12:01:54;;;;;;;1.63;1.37;;;;;;;;;;5054231;28;20877;-87
2023/07/10 12:04:22;;;;;;;3.40;1.30;;;;;;;;;;5054147;28;20209;-87
2023/07/10 12:06:49;;;;;;;5.30;1.63;;;;;;;;;;5052956;28;20178;-86
2023/07/10 12:09:15;;;;;;;2.67;1.17;;;;;;;;;;5054188;28;20416;-87
2023/07/10 12:11:41;;;;;;;3.00;1.27;;;;;;;;;;5054242;28;20834;-88
2023/07/10 12:14:11;;;;;;;2.60;1.33;;;;;;;;;;5054152;28;20503;-87
2023/07/10 12:16:57;;;;;;;2.90;1.50;;;;;;;;;;5052499;28;20200;-87
2023/07/10 12:19:35;;;;;;;2.53;1.20;;;;;;;;;;5052452;28;20423;-90
2023/07/10 12:22:02;;;;;;;1.83;1.30;;;;;;;;;;5053955;28;20499;-86
2023/07/10 12:24:28;;;;;;;2.77;1.23;;;;;;;;;;5053888;28;20471;-86
2023/07/10 12:26:54;;;;;;;1.60;1.30;;;;;;;;;;5052589;28;20507;-85
2023/07/10 12:29:20;;;;;;;2.77;1.70;;;;;;;;;;5053587;28;20504;-86
2023/07/10 12:31:46;;;;;;;2.70;0.97;;;;;;;;;;5053663;28;20503;-87
2023/07/10 12:34:20;;;;;;;6.43;1.93;;;;;;;;;;5053696;28;20256;-86
2023/07/10 12:36:49;;;;;;;6.30;2.03;;;;;;;;;;5052493;28;20246;-85
2023/07/10 12:39:15;;;;;;;2.50;1.43;;;;;;;;;;5053653;28;20432;-87
2023/07/10 12:41:42;;;;;;;1.77;0.90;;;;;;;;;;5053569;28;20418;-86
2023/07/10 12:44:08;;;;;;;3.40;1.17;;;;;;;;;;5053365;28;20471;-82
2023/07/10 12:46:34;;;;;;;3.80;1.20;;;;;;;;;;5053152;28;20400;-85
2023/07/10 12:49:16;;;;;;;1.77;1.20;;;;;;;;;;5053476;28;20994;-86
2023/07/10 12:51:44;;;;;;;2.70;1.10;;;;;;;;;;5053329;28;20744;-86
2023/07/10 12:54:29;;;;;;;2.80;1.30;;;;;;;;;;5053294;28;20461;-84
2023/07/10 12:56:56;;;;;;;2.17;0.80;;;;;;;;;;5046444;28;20896;-85
2023/07/10 12:59:35;;;;;;;3.63;1.77;;;;;;;;;;5035314;28;20465;-86
2023/07/10 13:02:03;;;;;;;3.03;1.00;;;;;;;;;;5038156;28;20490;-83
2023/07/10 13:04:31;;;;;;;1.97;1.03;;;;;;;;;;5036640;28;21071;-84
2023/07/10 13:07:01;;;;;;;2.27;1.00;;;;;;;;;;5039029;28;20905;-85
2023/07/10 13:09:30;;;;;;;2.30;0.93;;;;;;;;;;5050657;28;20425;-84
2023/07/10 13:11:56;;;;;;;3.10;1.40;;;;;;;;;;5051572;28;21010;-86
2023/07/10 13:14:24;;;;;;;3.70;1.17;;;;;;;;;;5051637;28;20452;-84
2023/07/10 13:16:51;;;;;;;4.00;1.17;;;;;;;;;;5052576;28;20178;-83
2023/07/10 13:19:17;;;;;;;2.33;0.93;;;;;;;;;;5052500;28;20928;-85
2023/07/10 13:21:43;;;;;;;3.80;1.10;;;;;;;;;;5052500;28;20404;-84
2023/07/10 13:24:09;;;;;;;5.33;1.60;;;;;;;;;;5052475;28;20209;-83
2023/07/10 13:26:35;;;;;;;2.37;0.70;;;;;;;;;;5052617;28;20773;-85
2023/07/10 13:29:01;;;;;;;2.33;1.10;;;;;;;;;;5052335;28;20173;-84
2023/07/10 13:31:30;;;;;;;2.77;1.40;;;;;;;;;;5050160;28;20184;-84
2023/07/10 13:33:55;;;;;;;2.73;1.27;;;;;;;;;;5043370;28;20481;-84
2023/07/10 13:36:23;;;;;;;1.90;1.07;;;;;;;;;;5052184;28;20412;-84
2023/07/10 13:38:50;;;;;;;3.43;1.40;;;;;;;;;;5050995;28;20184;-86
2023/07/10 13:41:17;;;;;;;3.33;1.13;;;;;;;;;;5052129;28;20416;-82
2023/07/10 13:43:43;;;;;;;4.30;1.10;;;;;;;;;;5051834;28;20471;-84
2023/07/10 13:46:29;;;;;;;3.90;1.03;;;;;;;;;;5051820;28;20803;-83
2023/07/10 13:48:56;;;;;;;2.13;1.00;;;;;;;;;;5051966;28;20425;-84
2023/07/10 13:51:22;;;;;;;2.23;1.03;;;;;;;;;;5052280;28;20451;-83
2023/07/10 13:53:49;;;;;;;2.23;0.70;;;;;;;;;;5052145;28;20408;-84
2023/07/10 13:56:16;;;;;;;2.93;1.77;;;;;;;;;;5052271;28;20408;-84
2023/07/10 13:58:43;;;;;;;2.53;1.07;;;;;;;;;;5052115;28;20403;-83
2023/07/10 14:01:10;;;;;;;2.27;1.03;;;;;;;;;;5051794;28;20451;-83
2023/07/10 14:03:37;;;;;;;3.97;1.37;;;;;;;;;;5051981;28;20475;-85
2023/07/10 14:06:12;;;;;;;2.47;1.03;;;;;;;;;;5051970;28;20446;-83
2023/07/10 14:08:38;;;;;;;2.93;1.33;;;;;;;;;;5052091;28;20415;-83
2023/07/10 14:11:04;;;;;;;3.53;1.47;;;;;;;;;;5051566;28;20463;-83
2023/07/10 14:13:29;;;;;;;2.70;0.90;;;;;;;;;;5052103;28;20704;-83
2023/07/10 14:16:03;;;;;;;3.53;0.80;;;;;;;;;;5051682;28;20228;-84
2023/07/10 14:18:29;;;;;;;4.40;1.50;;;;;;;;;;5051976;28;20239;-83
2023/07/10 14:21:02;;;;;;;2.63;1.20;;;;;;;;;;5052000;28;20420;-83
2023/07/10 14:23:28;;;;;;;3.10;0.70;;;;;;;;;;5054224;28;20478;-85
2023/07/10 14:25:55;;;;;;;4.63;0.90;;;;;;;;;;5035847;28;20397;-84
2023/07/10 14:28:22;;;;;;;6.70;1.07;;;;;;;;;;5051151;28;20475;-86
2023/07/10 14:30:48;;;;;;;2.40;1.20;;;;;;;;;;5050924;28;20501;-83
2023/07/10 14:33:14;;;;;;;3.10;0.20;;;;;;;;;;5054183;28;21870;-82
2023/07/10 14:35:41;;;;;;;2.80;0.70;;;;;;;;;;5055743;28;20408;-86
2023/07/10 14:38:17;;;;;;;2.87;0.77;;;;;;;;;;5055809;28;20440;-83
2023/07/10 14:40:43;;;;;;;3.23;0.90;;;;;;;;;;5054955;28;20396;-85
2023/07/10 14:43:12;;;;;;;3.20;0.87;;;;;;;;;;5053993;28;20456;-86
2023/07/10 14:45:41;;;;;;;3.90;0.77;;;;;;;;;;5055243;28;20515;-82
2023/07/10 14:48:09;;;;;;;4.77;0.60;;;;;;;;;;5053194;28;20428;-82